Amy C. Mc Allister — WCZ9520 — position and weather

sailwx.info

Track history (hours):
 
Tides and Currents Weather Stations Pressure Air Temp Water Temp Dewpoint Dewpoint Depression Visibility Wind Speed Wind Dir Waves Ship Positions

Amy C. Mc Allister

Owner: MC ALLISTER TOWING & TRANSPORTATION INC, NEW YORK, NY. More information available from US FCC via Universal Licensing System and Coast Guard Vessel Documentation Center.

Last reported at 2016-Aug-27 18:33 UTC. Time now 2016-Aug-27 18:49 UTC.
Position N 40°39' W 074°06'.

; draft 4.9 m.

Type: Towing. MMSI: 366995040.

Date/timePositionNaut miles runAvg speedWind from/ knotsBaromVisibWave heightAir tempDewpointWater temp
2016-Aug-27 18:33N 40°39' W 074°06'2 2.1
2016-Aug-27 17:33N 40°39' W 074°09'3 2.6
2016-Aug-27 16:33N 40°41' W 074°08'0 0.4
2016-Aug-27 15:33N 40°41' W 074°08'0 0.0
2016-Aug-27 14:33N 40°41' W 074°08'0 0.1
2016-Aug-27 13:33N 40°41' W 074°08'2 1.9
2016-Aug-27 12:33N 40°40' W 074°09'0 0.1
2016-Aug-27 11:33N 40°40' W 074°09'1 1.1
2016-Aug-27 10:34N 40°41' W 074°08'2 2.1
2016-Aug-27 09:33N 40°39' W 074°07'4 4.2
2016-Aug-27 08:33N 40°38' W 074°12'0 0.0
2016-Aug-27 04:27N 40°38' W 074°12'0 0.1
2016-Aug-27 03:33N 40°38' W 074°12'2 1.7
2016-Aug-27 02:33N 40°38' W 074°10'0 0.0
2016-Aug-27 01:32N 40°38' W 074°10'0 0.0
2016-Aug-27 00:33N 40°38' W 074°10'0 0.0
2016-Aug-26 23:33N 40°38' W 074°10'2 2.3
2016-Aug-26 22:33N 40°40' W 074°08'0 0.0
2016-Aug-26 21:34N 40°40' W 074°08'0 0.0
2016-Aug-26 20:33N 40°40' W 074°08'0 0.0
2016-Aug-26 19:34N 40°40' W 074°08'1 0.5
2016-Aug-26 18:33N 40°41' W 074°08'0 0.2
2016-Aug-26 17:33N 40°41' W 074°08'1 1.3
2016-Aug-26 16:33N 40°40' W 074°09'0 0.0
2016-Aug-26 15:33N 40°40' W 074°09'3 2.7
2016-Aug-26 14:32N 40°38' W 074°12'3 1.0
2016-Aug-26 11:33N 40°39' W 074°08'3 2.9
2016-Aug-26 10:34N 40°40' W 074°05'5 5.4
2016-Aug-26 09:33N 40°42' W 073°58'1 1.3
2016-Aug-26 08:33N 40°42' W 074°00'4 3.9
2016-Aug-26 07:34N 40°40' W 074°04'5 1.3
2016-Aug-26 04:04N 40°38' W 074°10'0 0.0
2016-Aug-26 03:05N 40°38' W 074°10'0 0.0
2016-Aug-26 01:09N 40°38' W 074°10'0 0.0
2016-Aug-25 20:28N 40°38' W 074°10'0 0.1
2016-Aug-25 19:33N 40°39' W 074°10'2 0.7
2016-Aug-25 17:20N 40°38' W 074°12'4 5.6
2016-Aug-25 16:33N 40°39' W 074°06'2 1.9
2016-Aug-25 15:33N 40°40' W 074°04'1 1.1
2016-Aug-25 14:33N 40°40' W 074°03'4 3.6
2016-Aug-25 13:33N 40°39' W 074°07'0 0.3
2016-Aug-25 12:34N 40°39' W 074°07'2 2.1
2016-Aug-25 11:34N 40°38' W 074°10'2 2.1
2016-Aug-25 10:33N 40°37' W 074°12'2 2.0
2016-Aug-25 09:34N 40°39' W 074°10'0 0.0
2016-Aug-25 03:27N 40°39' W 074°10'7 8.1
2016-Aug-25 02:34N 40°40' W 074°01'0 0.3
2016-Aug-25 01:33N 40°40' W 074°01'4 3.8
2016-Aug-25 00:33N 40°39' W 074°06'0 0.0
2016-Aug-24 23:33N 40°39' W 074°06'2 2.2
2016-Aug-24 22:28N 40°39' W 074°09'0 0.3
2016-Aug-24 21:33N 40°40' W 074°09'1 0.8
2016-Aug-24 20:33N 40°40' W 074°08'2 1.7
2016-Aug-24 19:26N 40°39' W 074°09'2 2.3
2016-Aug-24 18:33N 40°39' W 074°06'3 1.9
2016-Aug-24 17:04N 40°38' W 074°10'0 0.0
2016-Aug-24 11:15N 40°38' W 074°10'3 1.7
2016-Aug-24 09:33N 40°36' W 074°12'2 0.2
2016-Aug-24 02:05N 40°38' W 074°12'5 9.2
2016-Aug-24 01:34N 40°39' W 074°06'2 1.7
2016-Aug-24 00:34N 40°40' W 074°04'1 1.4
2016-Aug-23 23:33N 40°39' W 074°05'0 0.4
2016-Aug-23 22:33N 40°39' W 074°05'1 0.9
2016-Aug-23 21:34N 40°40' W 074°04'1 0.8
2016-Aug-23 20:33N 40°40' W 074°05'0 0.1
2016-Aug-23 19:33N 40°40' W 074°05'0 0.0
2016-Aug-23 18:33N 40°40' W 074°05'0 0.0
2016-Aug-23 17:33N 40°40' W 074°05'0 0.0
2016-Aug-23 16:33N 40°40' W 074°05'0 0.2
2016-Aug-23 15:33N 40°40' W 074°05'2 2.2
2016-Aug-23 14:34N 40°38' W 074°04'3 3.1
2016-Aug-23 13:33N 40°39' W 074°08'1 0.7
2016-Aug-23 11:33N 40°40' W 074°09'0 0.0
2016-Aug-23 10:33N 40°40' W 074°09'0 0.0
2016-Aug-23 09:32N 40°40' W 074°09'0 0.0
2016-Aug-23 07:32N 40°40' W 074°09'0 0.0
2016-Aug-22 23:23N 40°40' W 074°09'2 2.5
2016-Aug-22 22:34N 40°39' W 074°07'1 0.6
2016-Aug-22 21:33N 40°39' W 074°06'2 2.4
2016-Aug-22 20:33N 40°39' W 074°09'1 0.9
2016-Aug-22 19:34N 40°40' W 074°09'2 1.9
2016-Aug-22 18:33N 40°38' W 074°10'0 0.0
2016-Aug-22 17:33N 40°38' W 074°10'2 1.5
2016-Aug-22 16:21N 40°38' W 074°12'1 1.2
2016-Aug-22 15:31N 40°39' W 074°11'6 6.2
2016-Aug-22 14:34N 40°39' W 074°03'1 1.0
2016-Aug-22 13:34N 40°38' W 074°04'0 0.0
2016-Aug-22 12:33N 40°38' W 074°04'4 3.9
2016-Aug-22 11:33N 40°39' W 074°09'1 0.8
2016-Aug-22 10:33N 40°40' W 074°08'4 4.4
2016-Aug-22 09:33N 40°38' W 074°03'5 5.0
2016-Aug-22 08:33N 40°38' W 074°10'0 0.0
2016-Aug-22 06:32N 40°38' W 074°10'0 0.0
2016-Aug-22 04:33N 40°38' W 074°10'0 0.0
2016-Aug-22 03:33N 40°38' W 074°10'0 0.0
2016-Aug-22 02:33N 40°38' W 074°10'0 0.0
2016-Aug-22 01:23N 40°38' W 074°10'0 0.0
2016-Aug-22 00:33N 40°38' W 074°10'0 0.0
2016-Aug-21 23:32N 40°38' W 074°10'0 0.0
2016-Aug-21 17:31N 40°38' W 074°10'0 0.0
2016-Aug-21 16:32N 40°38' W 074°10'0 0.0
2016-Aug-21 13:30N 40°38' W 074°10'0 0.0
2016-Aug-20 22:26N 40°38' W 074°10'1 1.5
2016-Aug-20 21:34N 40°40' W 074°09'0 0.0
2016-Aug-20 20:33N 40°40' W 074°09'0 0.0
2016-Aug-20 19:33N 40°40' W 074°09'0 0.0
2016-Aug-20 18:33N 40°40' W 074°09'0 0.0
2016-Aug-20 17:33N 40°40' W 074°09'0 0.0
2016-Aug-20 16:33N 40°40' W 074°09'1 1.2
2016-Aug-20 15:33N 40°39' W 074°08'1 0.9
2016-Aug-20 14:34N 40°39' W 074°07'2 1.5
2016-Aug-20 13:09N 40°38' W 074°10'0 0.0
2016-Aug-20 11:11N 40°38' W 074°10'3 3.7
2016-Aug-20 10:26N 40°36' W 074°12'0 0.0
2016-Aug-20 09:33N 40°36' W 074°12'1 0.1
2016-Aug-20 01:26N 40°37' W 074°12'2 2.5
2016-Aug-20 00:33N 40°38' W 074°10'0 0.0
2016-Aug-19 23:33N 40°38' W 074°10'1 1.3
2016-Aug-19 22:31N 40°40' W 074°09'0 0.0
2016-Aug-19 21:33N 40°40' W 074°09'0 0.2
2016-Aug-19 20:33N 40°40' W 074°09'2 1.7
2016-Aug-19 19:33N 40°39' W 074°07'3 3.0
2016-Aug-19 18:33N 40°38' W 074°03'5 5.1
2016-Aug-19 17:33N 40°38' W 074°10'0 0.0
2016-Aug-19 16:33N 40°38' W 074°10'0 0.0
2016-Aug-19 15:34N 40°38' W 074°10'0 0.0
2016-Aug-19 13:33N 40°38' W 074°10'1 0.9
2016-Aug-19 12:33N 40°38' W 074°09'2 1.6
2016-Aug-19 11:33N 40°40' W 074°08'0 0.3
2016-Aug-19 10:34N 40°40' W 074°08'0 0.3
2016-Aug-19 09:34N 40°40' W 074°08'4 3.7
2016-Aug-19 08:34N 40°38' W 074°04'2 1.6
2016-Aug-19 07:34N 40°37' W 074°03'5 4.8
2016-Aug-19 06:34N 40°40' W 074°08'0 0.3
2016-Aug-19 05:34N 40°40' W 074°09'0 0.4
2016-Aug-19 04:33N 40°40' W 074°09'3 1.5
2016-Aug-19 02:25N 40°38' W 074°12'2 1.5
2016-Aug-19 01:14N 40°38' W 074°10'0 0.0
2016-Aug-19 00:26N 40°38' W 074°10'2 2.2
2016-Aug-18 23:33N 40°40' W 074°09'1 0.6
2016-Aug-18 22:34N 40°41' W 074°09'2 2.4
2016-Aug-18 21:33N 40°38' W 074°10'5 4.5
2016-Aug-18 20:33N 40°40' W 074°04'1 1.0
2016-Aug-18 19:33N 40°40' W 074°05'0 0.0
2016-Aug-18 18:33N 40°40' W 074°05'0 0.0
2016-Aug-18 17:34N 40°40' W 074°05'0 0.0
2016-Aug-18 16:34N 40°40' W 074°05'0 0.0
2016-Aug-18 15:34N 40°40' W 074°05'0 0.0
2016-Aug-18 14:33N 40°40' W 074°05'0 0.0
2016-Aug-18 13:34N 40°40' W 074°05'0 0.0
2016-Aug-18 12:34N 40°40' W 074°05'0 0.0
2016-Aug-18 11:34N 40°40' W 074°05'0 0.0
2016-Aug-18 10:33N 40°40' W 074°05'2 1.6
2016-Aug-18 09:33N 40°39' W 074°06'2 2.1
2016-Aug-18 08:34N 40°38' W 074°09'1 0.8
2016-Aug-18 07:33N 40°38' W 074°10'0 0.0
2016-Aug-18 00:26N 40°38' W 074°10'4 4.4
2016-Aug-17 23:34N 40°39' W 074°05'1 0.9
2016-Aug-17 22:33N 40°40' W 074°04'0 0.0
2016-Aug-17 21:34N 40°40' W 074°04'2 1.8
2016-Aug-17 20:34N 40°39' W 074°06'1 1.5
2016-Aug-17 19:33N 40°39' W 074°04'  
Track history (hours):
 
Tides and Currents Weather Stations Pressure Air Temp Water Temp Dewpoint Dewpoint Depression Visibility Wind Speed Wind Dir Waves Ship Positions

Amy C. Mc Allister

Owner: MC ALLISTER TOWING & TRANSPORTATION INC, NEW YORK, NY. More information available from US FCC via Universal Licensing System and Coast Guard Vessel Documentation Center.

Last reported at 2016-Aug-27 18:33 UTC. Time now 2016-Aug-27 18:49 UTC.
Position N 40°39' W 074°06'.

; draft 4.9 m.

Type: Towing. MMSI: 366995040.

Date/timePositionNaut miles runAvg speedWind from/ knotsBaromVisibWave heightAir tempDewpointWater temp
2016-Aug-27 18:33N 40°39' W 074°06'2 2.1
2016-Aug-27 17:33N 40°39' W 074°09'3 2.6
2016-Aug-27 16:33N 40°41' W 074°08'0 0.4
2016-Aug-27 15:33N 40°41' W 074°08'0 0.0
2016-Aug-27 14:33N 40°41' W 074°08'0 0.1
2016-Aug-27 13:33N 40°41' W 074°08'2 1.9
2016-Aug-27 12:33N 40°40' W 074°09'0 0.1
2016-Aug-27 11:33N 40°40' W 074°09'1 1.1
2016-Aug-27 10:34N 40°41' W 074°08'2 2.1
2016-Aug-27 09:33N 40°39' W 074°07'4 4.2
2016-Aug-27 08:33N 40°38' W 074°12'0 0.0
2016-Aug-27 04:27N 40°38' W 074°12'0 0.1
2016-Aug-27 03:33N 40°38' W 074°12'2 1.7
2016-Aug-27 02:33N 40°38' W 074°10'0 0.0
2016-Aug-27 01:32N 40°38' W 074°10'0 0.0
2016-Aug-27 00:33N 40°38' W 074°10'0 0.0
2016-Aug-26 23:33N 40°38' W 074°10'2 2.3
2016-Aug-26 22:33N 40°40' W 074°08'0 0.0
2016-Aug-26 21:34N 40°40' W 074°08'0 0.0
2016-Aug-26 20:33N 40°40' W 074°08'0 0.0
2016-Aug-26 19:34N 40°40' W 074°08'1 0.5
2016-Aug-26 18:33N 40°41' W 074°08'0 0.2
2016-Aug-26 17:33N 40°41' W 074°08'1 1.3
2016-Aug-26 16:33N 40°40' W 074°09'0 0.0
2016-Aug-26 15:33N 40°40' W 074°09'3 2.7
2016-Aug-26 14:32N 40°38' W 074°12'3 1.0
2016-Aug-26 11:33N 40°39' W 074°08'3 2.9
2016-Aug-26 10:34N 40°40' W 074°05'5 5.4
2016-Aug-26 09:33N 40°42' W 073°58'1 1.3
2016-Aug-26 08:33N 40°42' W 074°00'4 3.9
2016-Aug-26 07:34N 40°40' W 074°04'5 1.3
2016-Aug-26 04:04N 40°38' W 074°10'0 0.0
2016-Aug-26 03:05N 40°38' W 074°10'0 0.0
2016-Aug-26 01:09N 40°38' W 074°10'0 0.0
2016-Aug-25 20:28N 40°38' W 074°10'0 0.1
2016-Aug-25 19:33N 40°39' W 074°10'2 0.7
2016-Aug-25 17:20N 40°38' W 074°12'4 5.6
2016-Aug-25 16:33N 40°39' W 074°06'2 1.9
2016-Aug-25 15:33N 40°40' W 074°04'1 1.1
2016-Aug-25 14:33N 40°40' W 074°03'4 3.6
2016-Aug-25 13:33N 40°39' W 074°07'0 0.3
2016-Aug-25 12:34N 40°39' W 074°07'2 2.1
2016-Aug-25 11:34N 40°38' W 074°10'2 2.1
2016-Aug-25 10:33N 40°37' W 074°12'2 2.0
2016-Aug-25 09:34N 40°39' W 074°10'0 0.0
2016-Aug-25 03:27N 40°39' W 074°10'7 8.1
2016-Aug-25 02:34N 40°40' W 074°01'0 0.3
2016-Aug-25 01:33N 40°40' W 074°01'4 3.8
2016-Aug-25 00:33N 40°39' W 074°06'0 0.0
2016-Aug-24 23:33N 40°39' W 074°06'2 2.2
2016-Aug-24 22:28N 40°39' W 074°09'0 0.3
2016-Aug-24 21:33N 40°40' W 074°09'1 0.8
2016-Aug-24 20:33N 40°40' W 074°08'2 1.7
2016-Aug-24 19:26N 40°39' W 074°09'2 2.3
2016-Aug-24 18:33N 40°39' W 074°06'3 1.9
2016-Aug-24 17:04N 40°38' W 074°10'0 0.0
2016-Aug-24 11:15N 40°38' W 074°10'3 1.7
2016-Aug-24 09:33N 40°36' W 074°12'2 0.2
2016-Aug-24 02:05N 40°38' W 074°12'5 9.2
2016-Aug-24 01:34N 40°39' W 074°06'2 1.7
2016-Aug-24 00:34N 40°40' W 074°04'1 1.4
2016-Aug-23 23:33N 40°39' W 074°05'0 0.4
2016-Aug-23 22:33N 40°39' W 074°05'1 0.9
2016-Aug-23 21:34N 40°40' W 074°04'1 0.8
2016-Aug-23 20:33N 40°40' W 074°05'0 0.1
2016-Aug-23 19:33N 40°40' W 074°05'0 0.0
2016-Aug-23 18:33N 40°40' W 074°05'0 0.0
2016-Aug-23 17:33N 40°40' W 074°05'0 0.0
2016-Aug-23 16:33N 40°40' W 074°05'0 0.2
2016-Aug-23 15:33N 40°40' W 074°05'2 2.2
2016-Aug-23 14:34N 40°38' W 074°04'3 3.1
2016-Aug-23 13:33N 40°39' W 074°08'1 0.7
2016-Aug-23 11:33N 40°40' W 074°09'0 0.0
2016-Aug-23 10:33N 40°40' W 074°09'0 0.0
2016-Aug-23 09:32N 40°40' W 074°09'0 0.0
2016-Aug-23 07:32N 40°40' W 074°09'0 0.0
2016-Aug-22 23:23N 40°40' W 074°09'2 2.5
2016-Aug-22 22:34N 40°39' W 074°07'1 0.6
2016-Aug-22 21:33N 40°39' W 074°06'2 2.4
2016-Aug-22 20:33N 40°39' W 074°09'1 0.9
2016-Aug-22 19:34N 40°40' W 074°09'2 1.9
2016-Aug-22 18:33N 40°38' W 074°10'0 0.0
2016-Aug-22 17:33N 40°38' W 074°10'2 1.5
2016-Aug-22 16:21N 40°38' W 074°12'1 1.2
2016-Aug-22 15:31N 40°39' W 074°11'6 6.2
2016-Aug-22 14:34N 40°39' W 074°03'1 1.0
2016-Aug-22 13:34N 40°38' W 074°04'0 0.0
2016-Aug-22 12:33N 40°38' W 074°04'4 3.9
2016-Aug-22 11:33N 40°39' W 074°09'1 0.8
2016-Aug-22 10:33N 40°40' W 074°08'4 4.4
2016-Aug-22 09:33N 40°38' W 074°03'5 5.0
2016-Aug-22 08:33N 40°38' W 074°10'0 0.0
2016-Aug-22 06:32N 40°38' W 074°10'0 0.0
2016-Aug-22 04:33N 40°38' W 074°10'0 0.0
2016-Aug-22 03:33N 40°38' W 074°10'0 0.0
2016-Aug-22 02:33N 40°38' W 074°10'0 0.0
2016-Aug-22 01:23N 40°38' W 074°10'0 0.0
2016-Aug-22 00:33N 40°38' W 074°10'0 0.0
2016-Aug-21 23:32N 40°38' W 074°10'0 0.0
2016-Aug-21 17:31N 40°38' W 074°10'0 0.0
2016-Aug-21 16:32N 40°38' W 074°10'0 0.0
2016-Aug-21 13:30N 40°38' W 074°10'0 0.0
2016-Aug-20 22:26N 40°38' W 074°10'1 1.5
2016-Aug-20 21:34N 40°40' W 074°09'0 0.0
2016-Aug-20 20:33N 40°40' W 074°09'0 0.0
2016-Aug-20 19:33N 40°40' W 074°09'0 0.0
2016-Aug-20 18:33N 40°40' W 074°09'0 0.0
2016-Aug-20 17:33N 40°40' W 074°09'0 0.0
2016-Aug-20 16:33N 40°40' W 074°09'1 1.2
2016-Aug-20 15:33N 40°39' W 074°08'1 0.9
2016-Aug-20 14:34N 40°39' W 074°07'2 1.5
2016-Aug-20 13:09N 40°38' W 074°10'0 0.0
2016-Aug-20 11:11N 40°38' W 074°10'3 3.7
2016-Aug-20 10:26N 40°36' W 074°12'0 0.0
2016-Aug-20 09:33N 40°36' W 074°12'1 0.1
2016-Aug-20 01:26N 40°37' W 074°12'2 2.5
2016-Aug-20 00:33N 40°38' W 074°10'0 0.0
2016-Aug-19 23:33N 40°38' W 074°10'1 1.3
2016-Aug-19 22:31N 40°40' W 074°09'0 0.0
2016-Aug-19 21:33N 40°40' W 074°09'0 0.2
2016-Aug-19 20:33N 40°40' W 074°09'2 1.7
2016-Aug-19 19:33N 40°39' W 074°07'3 3.0
2016-Aug-19 18:33N 40°38' W 074°03'5 5.1
2016-Aug-19 17:33N 40°38' W 074°10'0 0.0
2016-Aug-19 16:33N 40°38' W 074°10'0 0.0
2016-Aug-19 15:34N 40°38' W 074°10'0 0.0
2016-Aug-19 13:33N 40°38' W 074°10'1 0.9
2016-Aug-19 12:33N 40°38' W 074°09'2 1.6
2016-Aug-19 11:33N 40°40' W 074°08'0 0.3
2016-Aug-19 10:34N 40°40' W 074°08'0 0.3
2016-Aug-19 09:34N 40°40' W 074°08'4 3.7
2016-Aug-19 08:34N 40°38' W 074°04'2 1.6
2016-Aug-19 07:34N 40°37' W 074°03'5 4.8
2016-Aug-19 06:34N 40°40' W 074°08'0 0.3
2016-Aug-19 05:34N 40°40' W 074°09'0 0.4
2016-Aug-19 04:33N 40°40' W 074°09'3 1.5
2016-Aug-19 02:25N 40°38' W 074°12'2 1.5
2016-Aug-19 01:14N 40°38' W 074°10'0 0.0
2016-Aug-19 00:26N 40°38' W 074°10'2 2.2
2016-Aug-18 23:33N 40°40' W 074°09'1 0.6
2016-Aug-18 22:34N 40°41' W 074°09'2 2.4
2016-Aug-18 21:33N 40°38' W 074°10'5 4.5
2016-Aug-18 20:33N 40°40' W 074°04'1 1.0
2016-Aug-18 19:33N 40°40' W 074°05'0 0.0
2016-Aug-18 18:33N 40°40' W 074°05'0 0.0
2016-Aug-18 17:34N 40°40' W 074°05'0 0.0
2016-Aug-18 16:34N 40°40' W 074°05'0 0.0
2016-Aug-18 15:34N 40°40' W 074°05'0 0.0
2016-Aug-18 14:33N 40°40' W 074°05'0 0.0
2016-Aug-18 13:34N 40°40' W 074°05'0 0.0
2016-Aug-18 12:34N 40°40' W 074°05'0 0.0
2016-Aug-18 11:34N 40°40' W 074°05'0 0.0
2016-Aug-18 10:33N 40°40' W 074°05'2 1.6
2016-Aug-18 09:33N 40°39' W 074°06'2 2.1
2016-Aug-18 08:34N 40°38' W 074°09'1 0.8
2016-Aug-18 07:33N 40°38' W 074°10'0 0.0
2016-Aug-18 00:26N 40°38' W 074°10'4 4.4
2016-Aug-17 23:34N 40°39' W 074°05'1 0.9
2016-Aug-17 22:33N 40°40' W 074°04'0 0.0
2016-Aug-17 21:34N 40°40' W 074°04'2 1.8
2016-Aug-17 20:34N 40°39' W 074°06'1 1.5
2016-Aug-17 19:33N 40°39' W 074°04'  

Dump ship's entire track history